Time;durP1;ratioP1;P1;durP2;ratioP2;P2;SDS_P1;SDS_P2;PMS_P1;PMS_P2;Temp;Humidity;BMP_temperature;BMP_pressure;BME280_temperature;BME280_humidity;BME280_pressure;Samples;Min_cycle;Max_cycle;Signal;HPM_P1;HPM_P2
2023/10/15 00:00:47;;;;;;;12.63;3.95;;;5.40;99.90;;;;;;5030002;28;20457;-78
2023/10/15 00:03:34;;;;;;;14.02;3.95;;;5.50;99.90;;;;;;5049354;28;20187;-81
2023/10/15 00:06:22;;;;;;;15.18;3.90;;;5.60;99.90;;;;;;5025907;28;20045;-82
2023/10/15 00:09:09;;;;;;;12.95;3.70;;;5.70;99.90;;;;;;5043415;28;20048;-81
2023/10/15 00:11:57;;;;;;;13.30;3.78;;;5.80;99.90;;;;;;5047443;28;20103;-79
2023/10/15 00:14:46;;;;;;;14.55;3.22;;;5.80;99.90;;;;;;5037396;28;20038;-82
2023/10/15 00:17:34;;;;;;;15.13;3.20;;;5.70;99.90;;;;;;5047231;28;20446;-81
2023/10/15 00:20:28;;;;;;;10.38;2.88;;;5.70;99.90;;;;;;5030007;28;20048;-81
2023/10/15 00:23:18;;;;;;;13.10;3.25;;;5.70;99.90;;;;;;5054689;28;20043;-82
2023/10/15 00:26:05;;;;;;;10.85;3.55;;;5.60;99.90;;;;;;5048227;28;20052;-82
2023/10/15 00:28:54;;;;;;;9.50;4.05;;;5.60;99.90;;;;;;5039595;28;20111;-83
2023/10/15 00:31:42;;;;;;;14.13;4.40;;;5.60;99.90;;;;;;5043345;28;20393;-82
2023/10/15 00:34:30;;;;;;;13.77;4.50;;;5.50;99.90;;;;;;5048527;28;20046;-83
2023/10/15 00:37:17;;;;;;;15.27;2.85;;;5.50;99.90;;;;;;5049616;28;20044;-83
2023/10/15 00:40:05;;;;;;;12.23;3.58;;;5.50;99.90;;;;;;5055290;28;20045;-83
2023/10/15 00:42:53;;;;;;;11.43;3.58;;;5.50;99.90;;;;;;5033878;28;20040;-82
2023/10/15 00:45:44;;;;;;;10.68;3.35;;;5.50;99.90;;;;;;5051263;28;20052;-81
2023/10/15 00:48:35;;;;;;;15.10;4.50;;;5.50;99.90;;;;;;5028001;28;20042;-82
2023/10/15 00:51:23;;;;;;;12.63;4.13;;;5.60;99.90;;;;;;5042444;28;20100;-82
2023/10/15 00:54:16;;;;;;;7.78;3.03;;;5.70;99.90;;;;;;5043224;28;20052;-82
2023/10/15 01:00:51;;;;;;;;;;;5.80;99.90;;;;;;5011700;28;20055;-83
2023/10/15 01:03:43;;;;;;;15.67;6.47;;;5.80;99.90;;;;;;5043603;28;20297;-83
2023/10/15 01:06:35;;;;;;;14.02;3.90;;;5.90;99.90;;;;;;5052682;28;20053;-82
2023/10/15 01:09:29;;;;;;;10.27;2.95;;;5.90;99.90;;;;;;5045484;28;20493;-82
2023/10/15 01:12:23;;;;;;;7.57;2.55;;;5.90;99.90;;;;;;5048487;28;20044;-82
2023/10/15 01:15:13;;;;;;;11.75;3.63;;;5.90;99.90;;;;;;5051746;28;20136;-83
2023/10/15 01:18:07;;;;;;;11.18;2.97;;;6.00;99.90;;;;;;5028662;28;20041;-82
2023/10/15 01:20:54;;;;;;;9.85;2.53;;;6.00;99.90;;;;;;5039159;28;20369;-82
2023/10/15 01:26:34;;;;;;;7.30;3.15;;;6.10;99.90;;;;;;5049270;28;20054;-82
2023/10/15 01:29:23;;;;;;;10.13;2.78;;;6.20;99.90;;;;;;5042049;28;20044;-82
2023/10/15 01:32:30;;;;;;;10.85;3.17;;;6.20;99.90;;;;;;5029465;28;20072;-83
2023/10/15 01:35:19;;;;;;;7.43;2.70;;;6.30;99.90;;;;;;5031650;28;20121;-83
2023/10/15 01:38:19;;;;;;;10.05;3.45;;;6.40;99.90;;;;;;5056961;28;20362;-81
2023/10/15 01:41:13;;;;;;;10.18;3.13;;;6.40;99.90;;;;;;5043973;28;20358;-82
2023/10/15 01:44:01;;;;;;;7.30;2.80;;;6.50;99.90;;;;;;5046924;28;20044;-81
2023/10/15 01:46:55;;;;;;;12.20;2.85;;;6.60;99.90;;;;;;5043847;28;20056;-81
2023/10/15 01:49:42;;;;;;;10.35;3.10;;;6.60;99.90;;;;;;5045947;28;20044;-82
2023/10/15 01:52:32;;;;;;;8.27;2.60;;;6.60;96.40;;;;;;5038200;28;20056;-82
2023/10/15 01:55:19;;;;;;;14.18;4.55;;;6.70;72.80;;;;;;5050908;28;20135;-82
2023/10/15 01:58:11;;;;;;;9.95;3.55;;;6.70;52.60;;;;;;5038571;28;20045;-81
2023/10/15 02:01:14;;;;;;;10.88;3.10;;;6.70;48.10;;;;;;5046417;28;20040;-82
2023/10/15 02:04:01;;;;;;;11.32;3.03;;;6.60;59.10;;;;;;5034323;28;20102;-81
2023/10/15 02:06:51;;;;;;;8.70;2.85;;;6.60;66.40;;;;;;5052886;28;20076;-82
2023/10/15 02:09:43;;;;;;;9.15;3.08;;;6.60;66.40;;;;;;5051247;28;20049;-82
2023/10/15 02:12:33;;;;;;;14.13;3.17;;;6.60;75.20;;;;;;5048114;28;20127;-81
2023/10/15 02:15:22;;;;;;;9.18;2.97;;;6.60;92.90;;;;;;5036604;28;20041;-82
2023/10/15 02:18:14;;;;;;;8.40;2.90;;;6.60;84.70;;;;;;5051333;28;20453;-83
2023/10/15 02:21:01;;;;;;;7.22;2.85;;;6.60;94.00;;;;;;5048725;28;20063;-83
2023/10/15 02:23:56;;;;;;;6.10;2.92;;;6.60;96.50;;;;;;5048334;28;20045;-82
2023/10/15 02:26:43;;;;;;;13.63;3.00;;;6.60;99.90;;;;;;5033182;28;20041;-81
2023/10/15 02:32:21;;;;;;;15.48;2.67;;;6.50;99.90;;;;;;5043526;28;20037;-82
2023/10/15 02:35:13;;;;;;;8.63;2.70;;;6.50;99.90;;;;;;5025758;28;20366;-82
2023/10/15 02:38:00;;;;;;;6.43;2.55;;;6.40;99.90;;;;;;5050599;28;20056;-82
2023/10/15 02:43:56;;;;;;;9.93;2.95;;;6.30;99.90;;;;;;5048875;28;20061;-82
2023/10/15 02:46:50;;;;;;;8.75;2.83;;;6.30;99.90;;;;;;5048583;28;20059;-82
2023/10/15 02:49:53;;;;;;;12.98;2.92;;;6.30;99.90;;;;;;5027181;28;20063;-81
2023/10/15 02:52:45;;;;;;;9.30;3.47;;;6.40;99.90;;;;;;5046887;28;20116;-82
2023/10/15 02:55:36;;;;;;;9.82;2.88;;;6.50;99.90;;;;;;5051815;28;20170;-83
2023/10/15 02:58:32;;;;;;;17.20;3.22;;;6.50;99.90;;;;;;5020618;28;20042;-83
2023/10/15 03:01:23;;;;;;;9.07;2.35;;;6.50;99.90;;;;;;5037686;28;20057;-82
2023/10/15 03:04:32;;;;;;;12.35;3.20;;;6.60;99.90;;;;;;5037851;28;20060;-83
2023/10/15 03:07:29;;;;;;;15.43;2.80;;;6.60;99.90;;;;;;5048518;28;20057;-81
2023/10/15 03:10:22;;;;;;;6.03;2.55;;;6.70;99.90;;;;;;5042287;28;20139;-82
2023/10/15 03:13:18;;;;;;;7.95;2.40;;;6.90;91.00;;;;;;5030032;28;20215;-82
2023/10/15 03:16:07;;;;;;;11.32;2.55;;;6.90;24.10;;;;;;5041034;28;20048;-82
2023/10/15 03:18:56;;;;;;;11.90;2.60;;;7.00;3.80;;;;;;5036404;28;20133;-78
2023/10/15 03:21:43;;;;;;;8.93;2.60;;;7.00;1.00;;;;;;5050994;28;20150;-81
2023/10/15 03:24:34;;;;;;;10.80;2.50;;;7.00;1.00;;;;;;5048647;28;20113;-82
2023/10/15 03:27:26;;;;;;;6.78;2.60;;;7.10;1.00;;;;;;5036539;28;20503;-81
2023/10/15 03:30:14;;;;;;;9.80;3.13;;;7.00;1.00;;;;;;5048637;28;20041;-81
2023/10/15 03:33:03;;;;;;;11.85;2.67;;;7.00;1.00;;;;;;5042270;28;20059;-82
2023/10/15 03:35:57;;;;;;;7.57;2.70;;;7.00;1.00;;;;;;5052865;28;20452;-82
2023/10/15 03:38:47;;;;;;;8.70;2.50;;;7.00;1.00;;;;;;5035812;28;20184;-82
2023/10/15 03:41:40;;;;;;;8.45;2.45;;;7.00;1.00;;;;;;5046690;28;20053;-82
2023/10/15 03:44:32;;;;;;;11.25;2.63;;;7.00;1.00;;;;;;5048906;28;20374;-82
2023/10/15 03:47:22;;;;;;;9.45;2.55;;;7.00;1.00;;;;;;5049603;28;20060;-82
2023/10/15 03:50:09;;;;;;;8.13;2.38;;;7.00;1.00;;;;;;5038964;28;20053;-81
2023/10/15 03:52:57;;;;;;;16.17;3.25;;;7.00;1.00;;;;;;5028052;28;20361;-81
2023/10/15 03:55:44;;;;;;;7.10;2.22;;;7.00;1.00;;;;;;5051795;28;20041;-82
2023/10/15 03:58:32;;;;;;;7.93;2.92;;;7.00;1.00;;;;;;5054165;28;20389;-83
2023/10/15 04:01:20;;;;;;;6.45;2.55;;;7.00;1.00;;;;;;5035438;28;20132;-82
2023/10/15 04:04:09;;;;;;;10.20;2.50;;;7.00;1.00;;;;;;5045652;28;20045;-81
2023/10/15 04:07:18;;;;;;;9.95;2.90;;;7.00;1.00;;;;;;5040730;28;20103;-82
2023/10/15 04:10:08;;;;;;;8.60;2.60;;;7.00;1.00;;;;;;5054741;28;20044;-82
2023/10/15 04:12:59;;;;;;;8.32;2.65;;;6.90;1.00;;;;;;5044111;28;20056;-82
2023/10/15 04:15:46;;;;;;;7.07;2.78;;;6.90;1.00;;;;;;5049055;28;20037;-81
2023/10/15 04:18:36;;;;;;;8.30;2.85;;;6.90;6.70;;;;;;5049208;28;20046;-82
2023/10/15 04:21:23;;;;;;;6.03;2.55;;;6.90;21.40;;;;;;5039324;28;20135;-82
2023/10/15 04:24:27;;;;;;;10.25;3.28;;;6.90;23.90;;;;;;5038413;28;20060;-80
2023/10/15 04:27:15;;;;;;;9.57;3.03;;;6.90;49.70;;;;;;5040370;28;20048;-80
2023/10/15 04:30:03;;;;;;;7.78;2.88;;;6.90;77.70;;;;;;5040554;28;20053;-82
2023/10/15 04:32:50;;;;;;;7.32;2.85;;;6.90;90.30;;;;;;5042551;28;20038;-82
2023/10/15 04:35:37;;;;;;;11.95;3.20;;;6.90;99.90;;;;;;5044077;28;20481;-83
2023/10/15 04:38:29;;;;;;;6.90;2.45;;;6.90;98.60;;;;;;5032135;28;20041;-84
2023/10/15 04:41:21;;;;;;;12.88;3.30;;;6.90;99.90;;;;;;5047907;28;20041;-83
2023/10/15 04:44:13;;;;;;;8.23;2.90;;;6.90;99.90;;;;;;5050564;28;20052;-83
2023/10/15 04:47:05;;;;;;;6.93;2.72;;;6.90;99.90;;;;;;5022608;28;20049;-81
2023/10/15 04:49:56;;;;;;;9.63;3.10;;;6.90;99.90;;;;;;5044436;28;20060;-82
2023/10/15 04:52:44;;;;;;;8.68;2.92;;;6.90;99.90;;;;;;5034418;28;20046;-80
2023/10/15 04:55:31;;;;;;;8.68;2.75;;;6.90;99.90;;;;;;5039033;28;20048;-83
2023/10/15 04:58:19;;;;;;;13.57;3.47;;;6.80;99.90;;;;;;5026033;28;20442;-83
2023/10/15 05:01:08;;;;;;;13.02;3.90;;;6.60;99.90;;;;;;5053484;28;20052;-82
2023/10/15 05:03:57;;;;;;;13.10;4.00;;;6.60;99.90;;;;;;5030846;28;20554;-83
2023/10/15 05:06:45;;;;;;;10.05;4.18;;;6.60;99.90;;;;;;5047813;28;20049;-83
2023/10/15 05:09:39;;;;;;;14.40;4.32;;;6.60;99.90;;;;;;5020530;28;20465;-80
2023/10/15 05:12:28;;;;;;;13.70;4.10;;;6.60;99.90;;;;;;5034259;28;20049;-82
2023/10/15 05:15:18;;;;;;;7.95;4.10;;;6.60;99.90;;;;;;5038239;28;20112;-83
2023/10/15 05:18:05;;;;;;;17.13;5.45;;;6.60;99.90;;;;;;5034255;28;20053;-83
2023/10/15 05:20:52;;;;;;;12.80;3.95;;;6.60;99.90;;;;;;5039487;28;20051;-82
2023/10/15 05:23:40;;;;;;;19.90;4.38;;;6.60;99.90;;;;;;5036179;28;20055;-83
2023/10/15 05:26:27;;;;;;;10.32;4.72;;;6.60;99.90;;;;;;5029522;28;20063;-82
2023/10/15 05:29:15;;;;;;;11.48;4.30;;;6.60;99.90;;;;;;5050413;28;20697;-83
2023/10/15 05:32:02;;;;;;;18.67;5.40;;;6.60;99.90;;;;;;5024996;28;20174;-83
2023/10/15 05:34:50;;;;;;;10.98;4.90;;;6.60;99.90;;;;;;5033197;28;20062;-83
2023/10/15 05:37:41;;;;;;;18.70;5.45;;;6.70;99.90;;;;;;5035349;28;20219;-82
2023/10/15 05:40:29;;;;;;;11.27;5.20;;;6.70;99.90;;;;;;5030394;28;20041;-82
2023/10/15 05:43:17;;;;;;;15.48;5.70;;;6.70;99.90;;;;;;5034671;28;20087;-83
2023/10/15 05:46:06;;;;;;;14.52;4.90;;;6.70;99.90;;;;;;5054272;28;20045;-81
2023/10/15 05:48:54;;;;;;;15.75;5.28;;;6.70;99.90;;;;;;5053641;28;20095;-83
2023/10/15 05:51:43;;;;;;;15.52;5.78;;;6.80;99.90;;;;;;5035273;28;20059;-83
2023/10/15 05:54:33;;;;;;;9.88;5.05;;;6.80;99.90;;;;;;5037693;28;20143;-81
2023/10/15 05:57:23;;;;;;;11.80;5.10;;;6.70;99.90;;;;;;5025011;28;20056;-83
2023/10/15 06:00:26;;;;;;;11.98;5.63;;;6.70;99.90;;;;;;5039704;28;20063;-82
2023/10/15 06:03:14;;;;;;;;;;;6.70;99.90;;;;;;5049705;28;20056;-82
2023/10/15 06:06:05;;;;;;;15.38;5.40;;;6.80;99.90;;;;;;5036442;28;20066;-82
2023/10/15 06:08:53;;;;;;;16.80;5.00;;;6.80;99.90;;;;;;5036514;28;20350;-82
2023/10/15 06:11:41;;;;;;;19.88;5.80;;;6.80;99.90;;;;;;5031086;28;20052;-82
2023/10/15 06:14:28;;;;;;;21.27;6.03;;;6.80;99.90;;;;;;5046672;28;20147;-83
2023/10/15 06:17:20;;;;;;;18.30;7.25;;;6.80;99.90;;;;;;5047003;28;20327;-83
2023/10/15 06:20:13;;;;;;;;;;;6.80;99.90;;;;;;5062687;28;20030;-83
2023/10/15 06:23:08;;;;;;;23.70;11.20;;;6.80;99.90;;;;;;5035005;28;19920;-82
2023/10/15 06:25:55;;;;;;;19.55;7.88;;;6.80;99.90;;;;;;5064440;28;20060;-82
2023/10/15 06:28:43;;;;;;;12.70;5.93;;;6.80;99.90;;;;;;5034894;28;20049;-82
2023/10/15 06:31:30;;;;;;;17.67;6.38;;;6.90;99.90;;;;;;5047872;28;20130;-81
2023/10/15 06:34:17;;;;;;;23.65;8.07;;;6.90;99.90;;;;;;5025077;28;20048;-82
2023/10/15 06:37:08;;;;;;;18.08;6.70;;;6.90;99.90;;;;;;5043859;28;20034;-81
2023/10/15 06:39:56;;;;;;;24.23;7.75;;;7.00;99.90;;;;;;5026358;28;20056;-82
2023/10/15 06:43:05;;;;;;;17.20;8.55;;;7.00;99.90;;;;;;5036955;28;20080;-83
2023/10/15 06:45:52;;;;;;;15.80;7.50;;;7.00;99.90;;;;;;5037274;28;20052;-82
2023/10/15 06:48:39;;;;;;;18.13;7.50;;;7.10;99.90;;;;;;5048688;28;20067;-84
2023/10/15 06:51:27;;;;;;;18.95;7.57;;;7.30;99.90;;;;;;5051219;28;20059;-83
2023/10/15 06:54:17;;;;;;;15.88;6.88;;;7.30;99.90;;;;;;5045831;28;20042;-82
2023/10/15 06:57:04;;;;;;;15.27;6.93;;;7.30;99.90;;;;;;5043797;28;20049;-82
2023/10/15 06:59:52;;;;;;;17.58;7.22;;;7.40;99.90;;;;;;5041645;28;20045;-83
2023/10/15 07:02:46;;;;;;;15.52;6.70;;;7.30;99.90;;;;;;5052082;28;20389;-83
2023/10/15 07:05:36;;;;;;;12.90;6.43;;;7.30;99.90;;;;;;5054446;28;20052;-84
2023/10/15 07:08:25;;;;;;;13.27;6.90;;;7.40;99.90;;;;;;5043605;28;20060;-84
2023/10/15 07:11:14;;;;;;;14.25;6.20;;;7.40;99.90;;;;;;5025240;28;20108;-82
2023/10/15 07:14:02;;;;;;;17.15;7.32;;;7.40;99.90;;;;;;5058068;28;20041;-83
2023/10/15 07:16:51;;;;;;;14.57;6.13;;;7.50;99.90;;;;;;5048877;28;20073;-85
2023/10/15 07:19:38;;;;;;;15.98;5.88;;;7.50;99.90;;;;;;5026666;28;20050;-81
2023/10/15 07:22:29;;;;;;;12.18;5.35;;;7.60;99.90;;;;;;5032585;28;20051;-82
2023/10/15 07:25:21;;;;;;;13.48;5.13;;;7.60;99.90;;;;;;5046728;28;20519;-84
2023/10/15 07:28:10;;;;;;;12.68;5.50;;;7.60;99.90;;;;;;5062152;28;20052;-82
2023/10/15 07:30:59;;;;;;;19.58;6.07;;;7.60;99.90;;;;;;5033437;28;20045;-82
2023/10/15 07:33:50;;;;;;;11.85;5.10;;;7.70;99.90;;;;;;5057235;28;20044;-82
2023/10/15 07:36:39;;;;;;;11.80;5.15;;;7.70;99.90;;;;;;5058449;28;20128;-82
2023/10/15 07:39:31;;;;;;;14.43;5.15;;;7.70;99.90;;;;;;5039951;28;20053;-82
2023/10/15 07:42:22;;;;;;;17.13;6.25;;;7.70;99.90;;;;;;5051920;28;20045;-83
2023/10/15 07:45:11;;;;;;;12.90;5.47;;;7.60;99.90;;;;;;5040334;28;20404;-83
2023/10/15 07:48:00;;;;;;;10.50;4.95;;;7.60;99.90;;;;;;5031808;28;20049;-83
2023/10/15 07:50:54;;;;;;;12.15;5.35;;;7.60;99.90;;;;;;5040360;28;20056;-83
2023/10/15 07:53:41;;;;;;;11.20;5.28;;;7.50;99.90;;;;;;5052387;28;20432;-82
2023/10/15 07:56:54;;;;;;;10.13;5.63;;;7.90;99.90;;;;;;5035956;28;20037;-84
2023/10/15 07:59:42;;;;;;;14.70;5.13;;;8.40;99.90;;;;;;5052385;28;20377;-82
2023/10/15 08:02:34;;;;;;;16.70;5.57;;;8.70;99.90;;;;;;5046538;28;20083;-83
2023/10/15 08:05:25;;;;;;;15.85;4.35;;;8.80;99.90;;;;;;5029573;28;20127;-82
2023/10/15 08:08:13;;;;;;;7.65;3.22;;;9.00;99.90;;;;;;5026634;28;20072;-82
2023/10/15 08:11:07;;;;;;;11.52;3.90;;;9.10;99.90;;;;;;5035515;28;20083;-82
2023/10/15 08:13:59;;;;;;;11.77;3.95;;;9.10;99.90;;;;;;5038219;28;20048;-81
2023/10/15 08:16:53;;;;;;;8.48;3.30;;;9.30;99.90;;;;;;5033038;28;20046;-82
2023/10/15 08:19:42;;;;;;;6.15;3.15;;;9.60;1.00;;;;;;5038318;28;20071;-82
2023/10/15 08:22:32;;;;;;;10.63;3.10;;;10.00;1.00;;;;;;5040923;28;20045;-83
2023/10/15 08:25:22;;;;;;;12.68;2.95;;;10.40;99.90;;;;;;5036407;28;20040;-83
2023/10/15 08:28:10;;;;;;;8.18;3.03;;;10.60;1.00;;;;;;5037191;28;20098;-83
2023/10/15 08:30:57;;;;;;;11.95;2.10;;;10.40;99.90;;;;;;5039970;28;20136;-79
2023/10/15 08:33:45;;;;;;;5.30;1.80;;;10.20;1.00;;;;;;5032313;28;20467;-79
2023/10/15 08:36:37;;;;;;;12.30;1.80;;;10.10;22.50;;;;;;5042390;28;20063;-81
2023/10/15 08:39:27;;;;;;;12.10;2.95;;;10.20;99.90;;;;;;5031997;28;20040;-80
2023/10/15 08:42:20;;;;;;;16.83;5.00;;;10.20;1.00;;;;;;5041354;28;20054;-82
2023/10/15 08:45:11;;;;;;;11.20;3.45;;;10.40;1.00;;;;;;5031759;28;20519;-81
2023/10/15 08:48:01;;;;;;;7.43;2.28;;;10.50;99.90;;;;;;5028502;28;20053;-83
2023/10/15 08:50:53;;;;;;;8.82;2.15;;;10.70;99.90;;;;;;5032317;28;20063;-81
2023/10/15 08:53:42;;;;;;;12.65;2.40;;;10.80;1.00;;;;;;5036032;28;20500;-81
2023/10/15 08:56:33;;;;;;;5.82;1.70;;;10.80;99.90;;;;;;5034855;28;20064;-80
2023/10/15 08:59:27;;;;;;;10.47;2.20;;;10.90;99.90;;;;;;5045703;28;20107;-81
2023/10/15 09:02:16;;;;;;;6.63;2.08;;;10.80;99.90;;;;;;5033334;28;20298;-80
2023/10/15 09:05:04;;;;;;;8.40;1.80;;;10.70;99.90;;;;;;5045396;28;20055;-80
2023/10/15 09:07:55;;;;;;;5.10;1.45;;;11.00;99.90;;;;;;5034994;28;20055;-80
2023/10/15 09:10:43;;;;;;;9.15;1.88;;;11.10;1.00;;;;;;5029563;28;20103;-80
2023/10/15 09:13:36;;;;;;;8.05;1.90;;;10.70;1.00;;;;;;5035038;28;20048;-81
2023/10/15 09:16:26;;;;;;;11.65;1.90;;;10.20;1.00;;;;;;5047666;28;20095;-79
2023/10/15 09:19:14;;;;;;;8.30;2.40;;;9.80;99.90;;;;;;5033411;28;20045;-80
2023/10/15 09:22:16;;;;;;;6.03;2.33;;;9.50;99.90;;;;;;5031728;28;20101;-81
2023/10/15 09:25:14;;;;;;;8.05;2.03;;;9.30;1.00;;;;;;5030800;28;20033;-82
2023/10/15 09:28:01;;;;;;;7.28;2.20;;;9.30;1.00;;;;;;5026824;28;20056;-82
2023/10/15 09:31:00;;;;;;;8.27;2.78;;;9.70;99.90;;;;;;5036554;28;20068;-81
2023/10/15 09:33:51;;;;;;;5.13;1.88;;;11.20;99.90;;;;;;5046941;28;20041;-81
2023/10/15 09:36:38;;;;;;;9.75;2.05;;;12.50;99.90;;;;;;5036461;28;20369;-81
2023/10/15 09:39:29;;;;;;;4.60;1.88;;;12.60;1.00;;;;;;5053373;28;20139;-82
2023/10/15 09:42:18;;;;;;;5.70;1.83;;;11.90;99.90;;;;;;5021148;28;20045;-81
2023/10/15 09:45:07;;;;;;;9.32;2.42;;;11.40;1.00;;;;;;5030736;28;20057;-80
2023/10/15 09:47:58;;;;;;;7.93;2.50;;;11.30;1.00;;;;;;5020246;28;20041;-80
2023/10/15 09:50:47;;;;;;;9.38;2.13;;;12.30;1.00;;;;;;5019229;28;20084;-80
2023/10/15 09:53:35;;;;;;;4.22;1.35;;;14.10;99.90;;;;;;5035236;28;20087;-81
2023/10/15 09:56:26;;;;;;;6.30;2.22;;;15.80;5.70;;;;;;5025312;28;20049;-80
2023/10/15 09:59:15;;;;;;;5.20;1.50;;;17.00;99.90;;;;;;5032152;28;20223;-80
2023/10/15 10:02:15;;;;;;;7.28;1.95;;;18.00;99.90;;;;;;5029649;28;20384;-80
2023/10/15 10:05:49;;;;;;;6.05;1.65;;;17.70;99.90;;;;;;5051399;28;20402;-81
2023/10/15 10:09:10;;;;;;;6.73;1.73;;;17.80;99.90;;;;;;5042791;28;20049;-81
2023/10/15 10:12:22;;;;;;;6.50;1.45;;;18.60;99.90;;;;;;5038217;28;20130;-79
2023/10/15 10:15:29;;;;;;;6.13;1.50;;;17.40;99.90;;;;;;5033508;28;20058;-79
2023/10/15 10:18:17;;;;;;;4.10;1.40;;;16.30;99.90;;;;;;5049661;28;20037;-79
2023/10/15 10:21:12;;;;;;;4.90;1.52;;;16.50;99.90;;;;;;5039015;28;20129;-80
2023/10/15 10:23:59;;;;;;;3.40;1.30;;;17.00;99.90;;;;;;5061729;28;20149;-79
2023/10/15 10:26:56;;;;;;;4.35;1.13;;;15.50;98.50;;;;;;5057339;28;20053;-80
2023/10/15 10:29:49;;;;;;;2.15;0.90;;;14.50;93.40;;;;;;5026248;28;20067;-79
2023/10/15 10:32:39;;;;;;;;;;;13.80;92.50;;;;;;5023911;28;20060;-81
2023/10/15 10:35:27;;;;;;;8.75;1.25;;;13.70;99.90;;;;;;5028562;28;19932;-81
2023/10/15 10:38:23;;;;;;;3.90;0.75;;;14.90;93.50;;;;;;5037879;28;20075;-80
2023/10/15 10:41:13;;;;;;;1.98;0.70;;;15.90;75.00;;;;;;5027680;28;20120;-81
2023/10/15 10:44:38;;;;;;;4.50;1.10;;;17.20;58.50;;;;;;5032824;28;20072;-80
2023/10/15 10:47:34;;;;;;;3.20;1.20;;;18.00;48.90;;;;;;5037172;28;20353;-80
2023/10/15 10:50:21;;;;;;;3.25;1.40;;;18.90;21.10;;;;;;5028481;28;20050;-82
2023/10/15 10:53:11;;;;;;;2.50;0.90;;;19.50;2.10;;;;;;5020878;28;20053;-83
2023/10/15 10:56:08;;;;;;;3.42;1.23;;;18.00;1.00;;;;;;5025726;28;20037;-83
2023/10/15 10:59:01;;;;;;;4.15;1.27;;;15.70;1.00;;;;;;5028319;28;20060;-82
2023/10/15 11:01:51;;;;;;;3.60;1.33;;;14.30;1.00;;;;;;5033483;28;20037;-83
2023/10/15 11:04:40;;;;;;;6.10;1.48;;;13.20;1.00;;;;;;5033445;28;20128;-82
2023/10/15 11:07:37;;;;;;;4.75;1.42;;;12.40;6.80;;;;;;5024934;28;20053;-84
2023/10/15 11:10:25;;;;;;;5.22;1.35;;;13.20;16.50;;;;;;5026602;28;20045;-82
2023/10/15 11:13:16;;;;;;;2.08;1.27;;;14.90;7.70;;;;;;5023598;28;20045;-85
2023/10/15 11:16:04;;;;;;;3.35;1.40;;;15.90;4.60;;;;;;5024358;28;20422;-82
2023/10/15 11:18:56;;;;;;;5.30;2.20;;;16.90;1.00;;;;;;5024758;28;20385;-81
2023/10/15 11:21:51;;;;;;;5.28;1.50;;;17.00;1.00;;;;;;5027535;28;20190;-82
2023/10/15 11:24:43;;;;;;;2.85;1.05;;;18.00;2.00;;;;;;5029744;28;20140;-79
2023/10/15 11:27:33;;;;;;;1.70;1.00;;;19.20;4.60;;;;;;5047751;28;20045;-81
2023/10/15 11:30:21;;;;;;;2.38;0.73;;;18.90;1.00;;;;;;5031677;28;20124;-81
2023/10/15 11:33:12;;;;;;;2.55;0.90;;;16.60;1.00;;;;;;5024947;28;20429;-81
2023/10/15 11:36:03;;;;;;;4.93;1.15;;;15.10;1.00;;;;;;5051141;28;20052;-81
2023/10/15 11:38:52;;;;;;;2.58;1.10;;;13.40;1.00;;;;;;5038701;28;20456;-81
2023/10/15 11:41:39;;;;;;;3.65;1.20;;;12.80;1.00;;;;;;5025544;28;20483;-81
2023/10/15 11:44:36;;;;;;;3.80;1.70;;;12.30;1.00;;;;;;5032850;28;20426;-81
2023/10/15 11:47:32;;;;;;;4.28;1.23;;;11.80;1.00;;;;;;5033717;28;20202;-81
2023/10/15 11:50:22;;;;;;;3.22;1.20;;;11.50;9.40;;;;;;5038839;28;20045;-81
2023/10/15 11:53:23;;;;;;;2.67;1.20;;;11.30;12.80;;;;;;5039838;28;20045;-81
2023/10/15 11:56:20;;;;;;;4.60;1.45;;;11.20;17.30;;;;;;5032111;28;20055;-81
2023/10/15 11:59:11;;;;;;;3.58;1.20;;;10.90;37.80;;;;;;5033967;28;20128;-81
2023/10/15 12:02:01;;;;;;;3.83;1.40;;;10.60;22.70;;;;;;5037069;28;20091;-81
2023/10/15 12:04:51;;;;;;;2.33;1.25;;;10.20;22.60;;;;;;5042978;28;20037;-81
2023/10/15 12:07:42;;;;;;;2.58;1.38;;;9.90;47.00;;;;;;5025520;28;20152;-81
2023/10/15 12:10:31;;;;;;;3.65;1.77;;;9.40;94.20;;;;;;5037294;28;20056;-83
2023/10/15 12:13:19;;;;;;;3.47;1.45;;;9.20;99.90;;;;;;5051356;28;20052;-80
2023/10/15 12:16:07;;;;;;;5.03;2.78;;;9.10;99.90;;;;;;5053615;28;20033;-81
2023/10/15 12:18:55;;;;;;;4.20;1.45;;;9.10;99.90;;;;;;5039654;28;20416;-82
2023/10/15 12:21:43;;;;;;;3.70;2.03;;;9.30;99.90;;;;;;5041237;28;20053;-81
2023/10/15 12:24:35;;;;;;;4.22;1.80;;;9.60;99.90;;;;;;5047132;28;20468;-81
2023/10/15 12:27:25;;;;;;;2.80;1.52;;;9.80;99.90;;;;;;5023935;28;20056;-82
2023/10/15 12:30:23;;;;;;;2.22;1.15;;;10.20;99.90;;;;;;5029212;28;20148;-82
2023/10/15 12:33:15;;;;;;;3.05;1.50;;;10.40;99.90;;;;;;5041513;28;20064;-82
2023/10/15 12:36:07;;;;;;;3.88;1.60;;;10.30;99.90;;;;;;5052928;28;20381;-82
2023/10/15 12:38:56;;;;;;;4.28;1.58;;;10.20;99.90;;;;;;5035632;28;20041;-84
2023/10/15 12:41:44;;;;;;;3.90;1.40;;;10.50;99.90;;;;;;5040266;28;20056;-81
2023/10/15 12:44:39;;;;;;;3.72;1.58;;;11.20;99.90;;;;;;5028341;28;20056;-81
2023/10/15 12:47:26;;;;;;;5.43;1.50;;;13.60;98.90;;;;;;5030593;28;20091;-81
2023/10/15 12:50:17;;;;;;;2.58;1.42;;;16.10;43.40;;;;;;5026434;28;20063;-80
2023/10/15 12:53:05;;;;;;;4.07;1.25;;;18.20;12.50;;;;;;5034204;28;20128;-80
2023/10/15 12:55:52;;;;;;;2.75;1.00;;;19.20;1.00;;;;;;5033367;28;20049;-80
2023/10/15 12:58:40;;;;;;;3.05;1.50;;;18.30;1.00;;;;;;5024613;28;20096;-82
2023/10/15 13:01:28;;;;;;;2.88;1.30;;;16.70;1.00;;;;;;5043260;28;20597;-81
2023/10/15 13:04:16;;;;;;;4.22;1.33;;;16.50;1.00;;;;;;5023050;28;20056;-83
2023/10/15 13:07:04;;;;;;;5.95;1.40;;;16.60;1.00;;;;;;5041798;28;20379;-81
2023/10/15 13:09:51;;;;;;;4.43;1.33;;;17.10;18.70;;;;;;5030485;28;20054;-79
2023/10/15 13:12:39;;;;;;;4.13;1.20;;;17.50;17.60;;;;;;5037677;28;20045;-81
2023/10/15 13:15:26;;;;;;;4.40;1.30;;;15.90;1.00;;;;;;5029273;28;20341;-81
2023/10/15 13:18:13;;;;;;;6.93;1.40;;;14.80;1.00;;;;;;5036329;28;20464;-81
2023/10/15 13:21:01;;;;;;;3.50;1.13;;;13.60;9.90;;;;;;5028185;28;20486;-82
2023/10/15 13:23:52;;;;;;;3.42;1.55;;;13.20;27.90;;;;;;5038100;28;20049;-82
2023/10/15 13:26:40;;;;;;;2.83;1.20;;;13.30;36.60;;;;;;5024996;28;20238;-81
2023/10/15 13:29:31;;;;;;;3.65;1.80;;;13.00;45.10;;;;;;5036608;28;20377;-81
2023/10/15 13:32:18;;;;;;;7.75;1.40;;;12.30;28.50;;;;;;5035994;28;20327;-80
2023/10/15 13:35:06;;;;;;;3.67;1.83;;;11.50;34.70;;;;;;5035380;28;20056;-80
2023/10/15 13:37:56;;;;;;;3.58;1.75;;;11.00;55.00;;;;;;5053329;28;20417;-80
2023/10/15 13:40:45;;;;;;;4.43;1.60;;;10.70;85.50;;;;;;5048425;28;20052;-80
2023/10/15 13:43:35;;;;;;;3.33;1.13;;;10.50;96.40;;;;;;5035848;28;20507;-80
2023/10/15 13:46:24;;;;;;;5.40;1.48;;;10.50;94.70;;;;;;5038159;28;20190;-80
2023/10/15 13:49:12;;;;;;;4.45;1.60;;;10.80;99.90;;;;;;5030487;28;20052;-80
2023/10/15 13:52:07;;;;;;;4.70;1.50;;;11.30;95.80;;;;;;5027350;28;20037;-81
2023/10/15 13:54:59;;;;;;;4.75;1.45;;;11.60;68.70;;;;;;5024243;28;20060;-81
2023/10/15 13:57:49;;;;;;;1.98;1.40;;;11.80;53.70;;;;;;5038364;28;20049;-81
2023/10/15 14:00:44;;;;;;;2.90;1.23;;;12.10;60.30;;;;;;5050929;28;20048;-81
2023/10/15 14:03:32;;;;;;;5.13;1.00;;;13.90;42.90;;;;;;5032379;28;20123;-79
2023/10/15 14:06:23;;;;;;;2.75;1.35;;;16.40;6.20;;;;;;5021883;28;20041;-79
2023/10/15 14:09:15;;;;;;;2.80;1.30;;;17.70;1.00;;;;;;5034083;28;20041;-80
2023/10/15 14:12:03;;;;;;;3.30;1.10;;;17.40;1.00;;;;;;5027539;28;20243;-80
2023/10/15 14:14:52;;;;;;;2.85;0.98;;;17.20;1.00;;;;;;5046581;28;20051;-81
2023/10/15 14:17:43;;;;;;;2.67;1.20;;;17.50;1.00;;;;;;5061880;28;20044;-79
2023/10/15 14:20:32;;;;;;;2.70;1.23;;;16.70;1.00;;;;;;5038026;28;20053;-81
2023/10/15 14:23:20;;;;;;;3.90;1.30;;;16.90;1.00;;;;;;5032843;28;20072;-82
2023/10/15 14:26:09;;;;;;;4.60;1.20;;;17.60;1.00;;;;;;5038330;28;20064;-82
2023/10/15 14:28:56;;;;;;;3.25;1.40;;;17.90;1.00;;;;;;5025589;28;20045;-81
2023/10/15 14:31:44;;;;;;;3.10;1.48;;;17.10;1.00;;;;;;5051706;28;20045;-81
2023/10/15 14:34:33;;;;;;;3.75;1.35;;;16.70;1.00;;;;;;5050697;28;20107;-81
2023/10/15 14:37:21;;;;;;;2.88;1.27;;;17.10;1.00;;;;;;5026430;28;20480;-80
2023/10/15 14:40:11;;;;;;;1.98;1.05;;;17.50;1.00;;;;;;5033621;28;20052;-81
2023/10/15 14:42:59;;;;;;;4.85;1.15;;;17.40;1.00;;;;;;5136131;23;20049;-81
2023/10/15 14:45:46;;;;;;;2.70;1.00;;;17.90;1.00;;;;;;5030576;28;20068;-80
2023/10/15 14:48:34;;;;;;;3.10;1.17;;;18.10;1.00;;;;;;5029034;28;20124;-80
2023/10/15 14:51:24;;;;;;;4.93;1.50;;;17.90;1.00;;;;;;5032418;28;20045;-80
2023/10/15 14:54:11;;;;;;;4.47;1.30;;;16.50;1.00;;;;;;5028444;28;20127;-83
2023/10/15 14:57:01;;;;;;;3.95;0.98;;;16.30;1.00;;;;;;5019473;28;20702;-81
2023/10/15 14:59:48;;;;;;;2.75;1.15;;;16.90;1.00;;;;;;5030136;28;20309;-81
2023/10/15 15:02:40;;;;;;;5.00;1.70;;;16.30;1.00;;;;;;5015897;28;20046;-81
2023/10/15 15:05:29;;;;;;;3.42;1.67;;;14.50;1.00;;;;;;5016874;28;20050;-84
2023/10/15 15:08:19;;;;;;;3.88;1.30;;;13.20;1.00;;;;;;5026494;28;20060;-82